createdAt,value
2023-08-14T00:00:57.675Z,14.90
2023-08-14T00:03:24.978Z,14.10
2023-08-14T00:05:52.481Z,15.55
2023-08-14T00:08:20.357Z,15.63
2023-08-14T00:10:47.632Z,15.63
2023-08-14T00:13:14.708Z,15.77
2023-08-14T00:15:41.903Z,14.50
2023-08-14T00:18:09.156Z,14.02
2023-08-14T00:20:36.249Z,13.55
2023-08-14T00:23:03.548Z,13.52
2023-08-14T00:25:30.967Z,13.82
2023-08-14T00:27:58.192Z,13.68
2023-08-14T00:30:25.249Z,12.60
2023-08-14T00:32:52.448Z,14.23
2023-08-14T00:35:20.369Z,13.18
2023-08-14T00:37:49.769Z,13.07
2023-08-14T00:40:18.304Z,13.57
2023-08-14T00:42:47.488Z,12.93
2023-08-14T00:45:14.691Z,12.80
2023-08-14T00:47:45.436Z,13.95
2023-08-14T00:50:13.301Z,14.60
2023-08-14T00:52:44.313Z,13.65
2023-08-14T00:55:18.458Z,13.48
2023-08-14T00:57:46.235Z,13.35
2023-08-14T01:00:14.726Z,14.15
2023-08-14T01:02:43.642Z,13.10
2023-08-14T01:05:11.232Z,14.43
2023-08-14T01:07:39.048Z,18.27
2023-08-14T01:10:09.025Z,13.23
2023-08-14T01:12:59.748Z,13.95
2023-08-14T01:15:33.319Z,14.23
2023-08-14T01:18:02.867Z,13.60
2023-08-14T01:20:33.511Z,15.18
2023-08-14T01:23:07.833Z,12.88
2023-08-14T01:25:38.660Z,13.20
2023-08-14T01:28:07.079Z,13.93
2023-08-14T01:30:34.290Z,14.02
2023-08-14T01:33:01.717Z,12.60
2023-08-14T01:35:53.707Z,13.18
2023-08-14T01:38:32.827Z,12.48
2023-08-14T01:41:23.711Z,13.82
2023-08-14T01:43:56.432Z,12.93
2023-08-14T01:46:25.662Z,13.27
2023-08-14T01:48:56.053Z,13.20
2023-08-14T01:51:24.655Z,13.15
2023-08-14T01:53:51.786Z,17.67
2023-08-14T01:56:18.908Z,14.18
2023-08-14T01:58:46.020Z,14.48
2023-08-14T02:01:13.208Z,13.57
2023-08-14T02:03:40.408Z,12.75
2023-08-14T02:06:07.717Z,12.60
2023-08-14T02:08:34.853Z,13.10
2023-08-14T02:11:07.996Z,14.27
2023-08-14T02:13:35.600Z,12.85
2023-08-14T02:16:04.403Z,15.48
2023-08-14T02:18:32.064Z,14.00
2023-08-14T02:20:59.255Z,13.57
2023-08-14T02:23:26.429Z,13.68
2023-08-14T02:25:56.263Z,14.10
2023-08-14T02:28:23.506Z,14.77
2023-08-14T02:30:50.631Z,14.30
2023-08-14T02:33:18.928Z,15.60
2023-08-14T02:35:46.700Z,14.75
2023-08-14T02:38:16.418Z,14.85
2023-08-14T02:40:44.801Z,13.73
2023-08-14T02:43:11.918Z,14.88
2023-08-14T02:45:39.604Z,13.85
2023-08-14T02:48:06.935Z,16.90
2023-08-14T02:50:34.146Z,14.02
2023-08-14T02:53:01.329Z,12.48
2023-08-14T02:55:28.687Z,12.93
2023-08-14T02:57:55.899Z,13.00
2023-08-14T03:00:23.123Z,13.10
2023-08-14T03:02:50.505Z,12.15
2023-08-14T03:05:18.035Z,13.77
2023-08-14T03:07:45.214Z,12.43
2023-08-14T03:10:12.308Z,13.77
2023-08-14T03:12:39.555Z,14.70
2023-08-14T03:15:07.665Z,14.02
2023-08-14T03:17:34.750Z,16.17
2023-08-14T03:20:02.049Z,14.05
2023-08-14T03:22:29.508Z,13.77
2023-08-14T03:24:56.790Z,15.52
2023-08-14T03:27:24.013Z,14.07
2023-08-14T03:29:51.350Z,14.45
2023-08-14T03:32:19.000Z,14.50
2023-08-14T03:34:46.766Z,12.90
2023-08-14T03:37:13.921Z,13.40
2023-08-14T03:39:41.287Z,14.15
2023-08-14T03:42:09.370Z,12.93
2023-08-14T03:44:36.602Z,12.32
2023-08-14T03:47:03.821Z,12.50
2023-08-14T03:49:31.017Z,14.23
2023-08-14T03:51:58.272Z,11.65
2023-08-14T03:54:25.390Z,11.52
2023-08-14T03:56:52.871Z,10.98
2023-08-14T03:59:20.014Z,13.82
2023-08-14T04:01:47.132Z,12.32
2023-08-14T04:04:14.408Z,13.73
2023-08-14T04:06:41.748Z,11.82
2023-08-14T04:09:10.411Z,12.63
2023-08-14T04:11:37.618Z,14.05
2023-08-14T04:14:04.866Z,14.75
2023-08-14T04:16:47.596Z,11.52
2023-08-14T04:19:16.668Z,12.20
2023-08-14T04:21:44.397Z,13.10
2023-08-14T04:24:11.855Z,14.32
2023-08-14T04:26:39.915Z,11.73
2023-08-14T04:29:09.283Z,12.95
2023-08-14T04:31:39.097Z,12.63
2023-08-14T04:34:06.822Z,13.73
2023-08-14T04:36:36.360Z,13.65
2023-08-14T04:39:05.631Z,13.25
2023-08-14T04:41:32.886Z,11.80
2023-08-14T04:44:01.424Z,12.50
2023-08-14T04:46:53.305Z,21.77
2023-08-14T04:49:26.385Z,14.77
2023-08-14T04:51:53.494Z,11.75
2023-08-14T04:54:20.805Z,11.98
2023-08-14T04:56:47.975Z,11.80
2023-08-14T04:59:16.384Z,13.60
2023-08-14T05:01:44.329Z,13.10
2023-08-14T05:04:13.177Z,13.48
2023-08-14T05:06:40.380Z,13.82
2023-08-14T05:09:24.257Z,13.13
2023-08-14T05:11:55.438Z,11.95
2023-08-14T05:14:22.681Z,11.23
2023-08-14T05:16:49.940Z,11.32
2023-08-14T05:19:17.421Z,11.27
2023-08-14T05:21:46.371Z,10.73
2023-08-14T05:24:15.500Z,10.65
2023-08-14T05:26:42.939Z,11.38
2023-08-14T05:29:10.076Z,10.30
2023-08-14T05:31:37.312Z,11.40
2023-08-14T05:34:04.636Z,11.02
2023-08-14T05:36:31.823Z,11.68
2023-08-14T05:38:59.016Z,10.85
2023-08-14T05:41:26.165Z,11.38
2023-08-14T05:43:53.332Z,10.15
2023-08-14T05:46:23.448Z,10.77
2023-08-14T05:48:50.648Z,10.07
2023-08-14T05:51:17.794Z,10.23
2023-08-14T05:53:44.953Z,9.75
2023-08-14T05:56:12.151Z,10.48
2023-08-14T05:58:39.368Z,11.57
2023-08-14T06:01:06.482Z,10.38
2023-08-14T06:03:44.270Z,10.05
2023-08-14T06:06:12.918Z,8.27
2023-08-14T06:08:40.102Z,6.75
2023-08-14T06:11:07.251Z,5.72
2023-08-14T06:13:34.434Z,8.68
2023-08-14T06:16:01.742Z,6.25
2023-08-14T06:18:28.841Z,5.55
2023-08-14T06:20:56.105Z,5.55
2023-08-14T06:23:23.213Z,5.07
2023-08-14T06:25:50.478Z,5.60
2023-08-14T06:28:17.586Z,5.28
2023-08-14T06:30:44.901Z,5.60
2023-08-14T06:33:12.594Z,5.20
2023-08-14T06:35:41.097Z,5.88
2023-08-14T06:38:08.228Z,5.60
2023-08-14T06:40:35.354Z,6.30
2023-08-14T06:43:04.292Z,5.80
2023-08-14T06:45:31.509Z,6.32
2023-08-14T06:47:58.824Z,6.72
2023-08-14T06:50:25.968Z,6.30
2023-08-14T06:52:53.926Z,6.80
2023-08-14T06:55:22.121Z,6.97
2023-08-14T06:57:49.452Z,8.43
2023-08-14T07:00:16.988Z,6.85
2023-08-14T07:02:46.887Z,7.95
2023-08-14T07:05:14.513Z,8.85
2023-08-14T07:07:41.847Z,8.60
2023-08-14T07:10:09.427Z,6.95
2023-08-14T07:12:36.514Z,7.78
2023-08-14T07:15:06.226Z,10.15
2023-08-14T07:17:33.885Z,8.05
2023-08-14T07:20:01.280Z,9.18
2023-08-14T07:22:28.430Z,8.60
2023-08-14T07:24:55.575Z,8.90
2023-08-14T07:27:24.446Z,8.40
2023-08-14T07:29:51.765Z,7.90
2023-08-14T07:32:19.064Z,9.65
2023-08-14T07:34:46.563Z,9.02
2023-08-14T07:37:13.768Z,7.40
2023-08-14T07:39:40.950Z,6.93
2023-08-14T07:42:08.110Z,7.40
2023-08-14T07:44:35.270Z,7.60
2023-08-14T07:47:02.370Z,7.40
2023-08-14T07:49:29.581Z,6.75
2023-08-14T07:51:56.857Z,7.50
2023-08-14T07:54:23.955Z,6.63
2023-08-14T07:56:53.571Z,7.80
2023-08-14T07:59:20.756Z,7.32
2023-08-14T08:01:47.910Z,7.20
2023-08-14T08:04:26.568Z,7.50
2023-08-14T08:06:54.102Z,8.85
2023-08-14T08:09:21.233Z,6.93
2023-08-14T08:11:50.284Z,8.25
2023-08-14T08:14:17.891Z,8.05
2023-08-14T08:16:46.031Z,9.85
2023-08-14T08:19:13.323Z,9.40
2023-08-14T08:21:40.901Z,8.20
2023-08-14T08:24:09.261Z,8.35
2023-08-14T08:26:37.203Z,7.40
2023-08-14T08:29:06.834Z,7.18
2023-08-14T08:31:34.391Z,8.23
2023-08-14T08:34:01.497Z,7.13
2023-08-14T08:36:28.731Z,8.02
2023-08-14T08:38:55.794Z,7.70
2023-08-14T08:41:26.840Z,8.27
2023-08-14T08:44:04.295Z,7.63
2023-08-14T08:46:36.732Z,7.35
2023-08-14T08:49:05.364Z,8.10
2023-08-14T08:51:34.141Z,7.82
2023-08-14T08:54:02.764Z,9.55
2023-08-14T08:56:30.339Z,7.63
2023-08-14T08:58:58.176Z,9.27
2023-08-14T09:01:25.327Z,8.95
2023-08-14T09:03:52.706Z,9.00
2023-08-14T09:06:19.995Z,15.25
2023-08-14T09:08:47.065Z,9.15
2023-08-14T09:11:14.244Z,7.85
2023-08-14T09:13:41.849Z,8.20
2023-08-14T09:16:09.762Z,7.70
2023-08-14T09:18:36.918Z,9.05
2023-08-14T09:21:04.632Z,7.63
2023-08-14T09:23:33.569Z,7.85
2023-08-14T09:26:00.923Z,7.32
2023-08-14T09:28:28.466Z,6.97
2023-08-14T09:31:06.974Z,5.95
2023-08-14T09:33:34.510Z,8.80
2023-08-14T09:36:01.716Z,6.15
2023-08-14T09:38:28.968Z,5.80
2023-08-14T09:40:59.059Z,6.00
2023-08-14T09:43:27.194Z,6.53
2023-08-14T09:45:55.278Z,6.80
2023-08-14T09:48:24.022Z,5.18
2023-08-14T09:50:52.783Z,5.05
2023-08-14T09:53:20.172Z,8.73
2023-08-14T09:55:47.499Z,4.43
2023-08-14T09:58:14.675Z,4.75
2023-08-14T10:00:42.201Z,4.68
2023-08-14T10:03:10.630Z,5.22
2023-08-14T10:05:39.120Z,6.03
2023-08-14T10:08:09.980Z,6.55
2023-08-14T10:10:40.098Z,5.07
2023-08-14T10:13:09.942Z,6.65
2023-08-14T10:15:42.940Z,5.10
2023-08-14T10:18:16.628Z,6.17
2023-08-14T10:20:49.279Z,5.63
2023-08-14T10:23:17.733Z,6.60
2023-08-14T10:25:48.793Z,6.30
2023-08-14T10:28:16.574Z,4.80
2023-08-14T10:30:44.281Z,5.68
2023-08-14T10:33:12.943Z,4.78
2023-08-14T10:35:57.093Z,4.80
2023-08-14T10:41:08.458Z,5.90
2023-08-14T10:43:35.778Z,9.45
2023-08-14T10:46:19.235Z,5.55
2023-08-14T10:48:50.060Z,4.80
2023-08-14T10:51:22.364Z,5.72
2023-08-14T10:53:49.531Z,6.78
2023-08-14T10:56:17.126Z,6.15
2023-08-14T10:58:48.828Z,6.57
2023-08-14T11:01:18.247Z,5.82
2023-08-14T11:04:06.306Z,6.30
2023-08-14T11:07:12.721Z,6.35
2023-08-14T11:09:41.178Z,5.93
2023-08-14T11:12:10.740Z,6.72
2023-08-14T11:14:40.545Z,4.10
2023-08-14T11:17:09.477Z,4.20
2023-08-14T11:19:38.599Z,4.53
2023-08-14T11:22:06.290Z,9.15
2023-08-14T11:24:33.982Z,5.65
2023-08-14T11:27:02.193Z,4.25
2023-08-14T11:29:31.759Z,7.68
2023-08-14T11:32:01.627Z,5.45
2023-08-14T11:34:29.670Z,5.00
2023-08-14T11:39:30.338Z,6.40
2023-08-14T11:41:57.795Z,6.15
2023-08-14T11:44:24.885Z,9.05
2023-08-14T11:46:52.159Z,6.60
2023-08-14T11:49:19.378Z,6.43
2023-08-14T11:51:47.367Z,5.75
2023-08-14T11:54:15.483Z,7.38
2023-08-14T11:56:42.678Z,5.25
2023-08-14T11:59:09.966Z,6.70
2023-08-14T12:01:39.072Z,8.75
2023-08-14T12:04:08.159Z,6.45
2023-08-14T12:06:36.125Z,5.70
2023-08-14T12:09:06.950Z,5.72
2023-08-14T12:11:34.165Z,4.80
2023-08-14T12:14:06.058Z,6.55
2023-08-14T12:16:33.551Z,4.88
2023-08-14T12:19:04.355Z,6.55
2023-08-14T12:21:31.789Z,6.03
2023-08-14T12:23:58.850Z,5.05
2023-08-14T12:26:27.343Z,5.80
2023-08-14T12:28:54.482Z,9.35
2023-08-14T12:31:21.787Z,6.13
2023-08-14T12:33:53.526Z,5.28
2023-08-14T12:36:23.848Z,6.53
2023-08-14T12:38:51.116Z,8.90
2023-08-14T12:41:18.341Z,7.97
2023-08-14T12:43:45.577Z,5.28
2023-08-14T12:46:12.930Z,5.30
2023-08-14T12:48:40.231Z,7.30
2023-08-14T12:53:35.410Z,7.38
2023-08-14T12:56:04.115Z,6.68
2023-08-14T12:58:32.257Z,6.70
2023-08-14T13:01:04.938Z,6.10
2023-08-14T13:03:37.084Z,7.10
2023-08-14T13:06:08.318Z,5.60
2023-08-14T13:08:35.490Z,6.18
2023-08-14T13:11:02.628Z,5.90
2023-08-14T13:13:30.802Z,7.15
2023-08-14T13:15:58.029Z,5.95
2023-08-14T13:18:25.300Z,6.75
2023-08-14T13:20:52.492Z,7.53
2023-08-14T13:23:19.989Z,6.40
2023-08-14T13:25:47.556Z,7.55
2023-08-14T13:28:14.821Z,5.93
2023-08-14T13:30:44.357Z,6.03
2023-08-14T13:33:13.306Z,5.63
2023-08-14T13:35:40.449Z,6.03
2023-08-14T13:38:07.606Z,7.45
2023-08-14T13:40:35.014Z,6.70
2023-08-14T13:43:02.465Z,5.55
2023-08-14T13:45:30.783Z,9.13
2023-08-14T13:47:59.092Z,7.97
2023-08-14T13:50:33.314Z,8.13
2023-08-14T13:53:02.904Z,5.93
2023-08-14T13:55:31.836Z,6.50
2023-08-14T13:58:00.175Z,7.15
2023-08-14T14:00:30.299Z,11.10
2023-08-14T14:02:59.398Z,7.25
2023-08-14T14:05:28.076Z,9.38
2023-08-14T14:07:57.505Z,6.30
2023-08-14T14:10:26.072Z,5.63
2023-08-14T14:15:23.680Z,6.22
2023-08-14T14:17:51.164Z,5.40
2023-08-14T14:20:18.358Z,5.95
2023-08-14T14:22:45.528Z,6.53
2023-08-14T14:25:14.070Z,8.50
2023-08-14T14:27:41.425Z,6.00
2023-08-14T14:30:09.174Z,8.07
2023-08-14T14:32:36.806Z,5.80
2023-08-14T14:35:04.542Z,6.38
2023-08-14T14:37:31.945Z,11.85
2023-08-14T14:39:59.214Z,5.47
2023-08-14T14:42:26.553Z,7.03
2023-08-14T14:44:55.462Z,5.70
2023-08-14T14:47:24.503Z,9.93
2023-08-14T14:49:52.478Z,8.23
2023-08-14T14:52:20.087Z,8.60
2023-08-14T14:54:47.274Z,5.20
2023-08-14T14:57:14.490Z,5.32
2023-08-14T14:59:42.779Z,4.57
2023-08-14T15:02:23.588Z,6.45
2023-08-14T15:04:56.928Z,5.15
2023-08-14T15:07:24.011Z,4.82
2023-08-14T15:09:51.516Z,6.32
2023-08-14T15:12:18.619Z,7.95
2023-08-14T15:14:46.312Z,7.13
2023-08-14T15:17:13.453Z,4.72
2023-08-14T15:19:41.856Z,5.90
2023-08-14T15:22:09.126Z,4.85
2023-08-14T15:24:37.067Z,5.43
2023-08-14T15:27:04.364Z,5.75
2023-08-14T15:29:31.556Z,5.97
2023-08-14T15:31:58.685Z,7.60
2023-08-14T15:34:25.921Z,6.25
2023-08-14T15:36:53.621Z,7.30
2023-08-14T15:39:21.194Z,5.63
2023-08-14T15:41:48.264Z,4.75
2023-08-14T15:44:15.654Z,7.32
2023-08-14T15:46:42.786Z,6.93
2023-08-14T15:49:10.109Z,6.15
2023-08-14T15:51:37.493Z,6.20
2023-08-14T15:54:04.951Z,4.30
2023-08-14T15:56:32.114Z,8.20
2023-08-14T15:58:59.355Z,5.85
2023-08-14T16:01:26.905Z,5.60
2023-08-14T16:03:54.132Z,7.22
2023-08-14T16:06:22.405Z,6.93
2023-08-14T16:08:49.990Z,4.93
2023-08-14T16:11:17.290Z,4.57
2023-08-14T16:13:44.623Z,6.18
2023-08-14T16:16:11.822Z,7.97
2023-08-14T16:18:38.958Z,6.38
2023-08-14T16:21:07.799Z,6.35
2023-08-14T16:23:35.194Z,5.40
2023-08-14T16:26:02.351Z,4.93
2023-08-14T16:28:29.567Z,7.05
2023-08-14T16:30:56.781Z,5.30
2023-08-14T16:33:24.112Z,8.52
2023-08-14T16:35:53.149Z,6.20
2023-08-14T16:38:20.586Z,5.53
2023-08-14T16:40:47.932Z,4.82
2023-08-14T16:43:15.414Z,5.20
2023-08-14T16:45:48.305Z,5.28
2023-08-14T16:48:17.372Z,4.93
2023-08-14T16:50:45.272Z,6.75
2023-08-14T16:53:12.631Z,5.82
2023-08-14T16:55:39.962Z,5.03
2023-08-14T16:58:07.064Z,6.22
2023-08-14T17:00:34.282Z,6.32
2023-08-14T17:03:03.757Z,6.93
2023-08-14T17:05:32.992Z,6.10
2023-08-14T17:08:00.399Z,5.38
2023-08-14T17:10:27.507Z,7.05
2023-08-14T17:12:54.607Z,5.63
2023-08-14T17:15:21.985Z,5.85
2023-08-14T17:17:49.757Z,5.82
2023-08-14T17:20:17.130Z,5.88
2023-08-14T17:22:44.499Z,5.57
2023-08-14T17:25:12.244Z,5.75
2023-08-14T17:27:39.581Z,8.95
2023-08-14T17:30:07.605Z,9.05
2023-08-14T17:32:35.030Z,7.35
2023-08-14T17:35:02.339Z,9.65
2023-08-14T17:37:29.447Z,8.75
2023-08-14T17:39:56.631Z,8.85
2023-08-14T17:42:23.994Z,7.35
2023-08-14T17:44:51.366Z,6.47
2023-08-14T17:47:18.974Z,6.20
2023-08-14T17:49:46.879Z,6.38
2023-08-14T17:52:14.008Z,6.28
2023-08-14T17:54:42.007Z,7.80
2023-08-14T17:57:09.092Z,6.35
2023-08-14T17:59:37.195Z,6.78
2023-08-14T18:02:04.597Z,6.47
2023-08-14T18:04:31.976Z,7.07
2023-08-14T18:07:00.011Z,7.55
2023-08-14T18:09:27.647Z,7.60
2023-08-14T18:11:55.228Z,7.32
2023-08-14T18:14:23.105Z,6.90
2023-08-14T18:16:50.481Z,8.88
2023-08-14T18:21:48.081Z,8.18
2023-08-14T18:24:15.295Z,10.27
2023-08-14T18:26:42.411Z,7.50
2023-08-14T18:29:09.528Z,8.27
2023-08-14T18:31:37.471Z,12.55
2023-08-14T18:34:04.964Z,7.65
2023-08-14T18:36:34.623Z,7.68
2023-08-14T18:39:02.033Z,8.70
2023-08-14T18:41:29.449Z,14.65
2023-08-14T18:43:57.039Z,11.82
2023-08-14T18:46:24.269Z,8.45
2023-08-14T18:48:51.402Z,9.60
2023-08-14T18:51:18.521Z,9.48
2023-08-14T18:53:45.989Z,9.07
2023-08-14T18:56:13.650Z,9.30
2023-08-14T18:58:41.065Z,9.55
2023-08-14T19:01:08.172Z,9.20
2023-08-14T19:03:35.403Z,9.05
2023-08-14T19:06:03.328Z,9.32
2023-08-14T19:08:30.512Z,8.90
2023-08-14T19:10:57.877Z,10.20
2023-08-14T19:13:25.106Z,9.07
2023-08-14T19:15:52.600Z,10.18
2023-08-14T19:18:19.768Z,10.75
2023-08-14T19:20:46.962Z,9.55
2023-08-14T19:23:14.269Z,9.27
2023-08-14T19:25:41.580Z,9.07
2023-08-14T19:28:21.022Z,9.90
2023-08-14T19:30:50.638Z,9.63
2023-08-14T19:33:17.894Z,12.30
2023-08-14T19:35:45.305Z,9.48
2023-08-14T19:38:12.623Z,9.15
2023-08-14T19:40:39.879Z,11.30
2023-08-14T19:43:07.775Z,9.77
2023-08-14T19:45:36.767Z,9.98
2023-08-14T19:48:04.984Z,10.27
2023-08-14T19:50:33.945Z,9.70
2023-08-14T19:53:01.700Z,10.23
2023-08-14T19:55:29.494Z,11.35
2023-08-14T19:57:56.761Z,10.63
2023-08-14T20:00:24.231Z,10.38
2023-08-14T20:02:54.011Z,10.15
2023-08-14T20:05:21.447Z,10.57
2023-08-14T20:07:48.696Z,10.30
2023-08-14T20:10:17.331Z,10.20
2023-08-14T20:12:44.702Z,13.25
2023-08-14T20:15:11.878Z,11.50
2023-08-14T20:17:39.137Z,10.55
2023-08-14T20:20:08.093Z,10.73
2023-08-14T20:22:35.234Z,10.68
2023-08-14T20:25:02.775Z,10.48
2023-08-14T20:27:29.851Z,10.93
2023-08-14T20:29:57.104Z,12.23
2023-08-14T20:32:24.153Z,11.18
2023-08-14T20:34:51.286Z,10.60
2023-08-14T20:37:18.672Z,10.73
2023-08-14T20:39:47.351Z,10.25
2023-08-14T20:42:14.443Z,11.30
2023-08-14T20:44:41.669Z,10.00
2023-08-14T20:47:09.317Z,10.73
2023-08-14T20:49:36.457Z,11.40
2023-08-14T20:52:04.246Z,10.68
2023-08-14T20:54:31.684Z,10.93
2023-08-14T20:56:59.640Z,9.80
2023-08-14T20:59:26.845Z,10.07
2023-08-14T21:01:55.692Z,10.68
2023-08-14T21:04:23.281Z,10.65
2023-08-14T21:06:50.327Z,11.63
2023-08-14T21:09:17.908Z,11.55
2023-08-14T21:11:45.008Z,11.68
2023-08-14T21:14:12.408Z,10.88
2023-08-14T21:16:40.352Z,13.32
2023-08-14T21:19:08.089Z,10.95
2023-08-14T21:21:35.242Z,11.68
2023-08-14T21:24:02.456Z,11.90
2023-08-14T21:26:31.231Z,12.23
2023-08-14T21:28:58.674Z,10.85
2023-08-14T21:31:25.932Z,9.98
2023-08-14T21:33:53.121Z,10.20
2023-08-14T21:36:20.225Z,11.25
2023-08-14T21:38:47.326Z,10.82
2023-08-14T21:41:14.501Z,11.15
2023-08-14T21:43:43.010Z,11.20
2023-08-14T21:46:10.288Z,12.18
2023-08-14T21:48:37.462Z,12.68
2023-08-14T21:51:04.929Z,11.32
2023-08-14T21:53:32.248Z,12.25
2023-08-14T21:55:59.284Z,11.70
2023-08-14T21:58:26.382Z,10.82
2023-08-14T22:00:53.986Z,12.40
2023-08-14T22:03:21.130Z,12.85
2023-08-14T22:05:48.700Z,11.18
2023-08-14T22:08:15.759Z,10.75
2023-08-14T22:10:43.134Z,11.85
2023-08-14T22:13:10.215Z,11.55
2023-08-14T22:15:46.154Z,11.75
2023-08-14T22:18:15.256Z,12.80
2023-08-14T22:20:43.762Z,13.55
2023-08-14T22:23:13.886Z,13.18
2023-08-14T22:25:43.647Z,13.00
2023-08-14T22:28:10.891Z,11.63
2023-08-14T22:30:38.208Z,13.50
2023-08-14T22:33:05.748Z,12.05
2023-08-14T22:35:32.897Z,11.82
2023-08-14T22:38:00.069Z,14.27
2023-08-14T22:40:27.225Z,13.18
2023-08-14T22:42:56.062Z,11.43
2023-08-14T22:45:25.391Z,11.75
2023-08-14T22:47:52.721Z,11.57
2023-08-14T22:50:20.035Z,12.60
2023-08-14T22:52:47.058Z,14.68
2023-08-14T22:55:14.555Z,12.20
2023-08-14T22:57:41.602Z,12.18
2023-08-14T23:00:10.515Z,12.52
2023-08-14T23:02:39.667Z,12.38
2023-08-14T23:05:08.459Z,12.20
2023-08-14T23:07:36.281Z,11.38
2023-08-14T23:10:03.482Z,12.15
2023-08-14T23:12:30.618Z,13.43
2023-08-14T23:14:57.870Z,15.52
2023-08-14T23:17:25.705Z,14.45
2023-08-14T23:19:53.419Z,12.93
2023-08-14T23:22:23.023Z,11.02
2023-08-14T23:24:50.319Z,12.00
2023-08-14T23:27:17.608Z,12.20
2023-08-14T23:29:45.040Z,14.02
2023-08-14T23:32:12.147Z,14.13
2023-08-14T23:34:40.739Z,13.23
2023-08-14T23:37:08.304Z,14.25
2023-08-14T23:39:35.670Z,12.85
2023-08-14T23:42:02.912Z,12.57
2023-08-14T23:44:30.396Z,13.48
2023-08-14T23:46:57.750Z,12.50
2023-08-14T23:49:25.331Z,13.18
2023-08-14T23:51:52.386Z,12.73
2023-08-14T23:54:20.110Z,12.90
2023-08-14T23:56:47.434Z,12.88
2023-08-14T23:59:14.798Z,13.57
